sensor_id;sensor_type;location;lat;lon;timestamp;temperature;humidity
80290;SHT30;69592;44.804;-0.550;2023-07-13T00:01:31;19.87;75.20
80290;SHT30;69592;44.804;-0.550;2023-07-13T00:03:57;19.85;75.42
80290;SHT30;69592;44.804;-0.550;2023-07-13T00:06:23;19.82;75.27
80290;SHT30;69592;44.804;-0.550;2023-07-13T00:08:49;19.80;75.52
80290;SHT30;69592;44.804;-0.550;2023-07-13T00:11:15;19.75;75.64
80290;SHT30;69592;44.804;-0.550;2023-07-13T00:13:41;19.72;75.59
80290;SHT30;69592;44.804;-0.550;2023-07-13T00:16:08;19.70;75.58
80290;SHT30;69592;44.804;-0.550;2023-07-13T00:18:34;19.69;75.47
80290;SHT30;69592;44.804;-0.550;2023-07-13T00:20:59;19.61;75.73
80290;SHT30;69592;44.804;-0.550;2023-07-13T00:23:41;19.58;75.74
80290;SHT30;69592;44.804;-0.550;2023-07-13T00:26:08;19.62;75.55
80290;SHT30;69592;44.804;-0.550;2023-07-13T00:28:34;19.62;75.61
80290;SHT30;69592;44.804;-0.550;2023-07-13T00:31:01;19.59;75.18
80290;SHT30;69592;44.804;-0.550;2023-07-13T00:33:28;19.52;75.27
80290;SHT30;69592;44.804;-0.550;2023-07-13T00:35:54;19.61;75.12
80290;SHT30;69592;44.804;-0.550;2023-07-13T00:38:20;19.65;75.02
80290;SHT30;69592;44.804;-0.550;2023-07-13T00:40:46;19.58;74.82
80290;SHT30;69592;44.804;-0.550;2023-07-13T00:43:14;19.58;74.74
80290;SHT30;69592;44.804;-0.550;2023-07-13T00:48:10;19.54;74.86
80290;SHT30;69592;44.804;-0.550;2023-07-13T00:50:37;19.49;75.08
80290;SHT30;69592;44.804;-0.550;2023-07-13T00:53:02;19.54;75.16
80290;SHT30;69592;44.804;-0.550;2023-07-13T00:55:28;19.54;74.82
80290;SHT30;69592;44.804;-0.550;2023-07-13T00:57:54;19.58;74.86
80290;SHT30;69592;44.804;-0.550;2023-07-13T01:00:20;19.49;75.07
80290;SHT30;69592;44.804;-0.550;2023-07-13T01:02:48;19.48;75.10
80290;SHT30;69592;44.804;-0.550;2023-07-13T01:05:17;19.49;75.09
80290;SHT30;69592;44.804;-0.550;2023-07-13T01:07:44;19.39;75.40
80290;SHT30;69592;44.804;-0.550;2023-07-13T01:10:28;19.36;75.63
80290;SHT30;69592;44.804;-0.550;2023-07-13T01:12:54;19.36;75.69
80290;SHT30;69592;44.804;-0.550;2023-07-13T01:18:03;19.41;75.78
80290;SHT30;69592;44.804;-0.550;2023-07-13T01:20:29;19.39;75.77
80290;SHT30;69592;44.804;-0.550;2023-07-13T01:22:55;19.35;76.02
80290;SHT30;69592;44.804;-0.550;2023-07-13T01:25:20;19.38;76.06
80290;SHT30;69592;44.804;-0.550;2023-07-13T01:27:46;19.39;76.00
80290;SHT30;69592;44.804;-0.550;2023-07-13T01:30:11;19.42;76.04
80290;SHT30;69592;44.804;-0.550;2023-07-13T01:32:37;19.38;76.10
80290;SHT30;69592;44.804;-0.550;2023-07-13T01:35:02;19.35;76.31
80290;SHT30;69592;44.804;-0.550;2023-07-13T01:37:28;19.38;76.15
80290;SHT30;69592;44.804;-0.550;2023-07-13T01:39:58;19.35;76.56
80290;SHT30;69592;44.804;-0.550;2023-07-13T01:42:23;19.39;76.24
80290;SHT30;69592;44.804;-0.550;2023-07-13T01:44:49;19.38;76.42
80290;SHT30;69592;44.804;-0.550;2023-07-13T01:47:14;19.31;76.19
80290;SHT30;69592;44.804;-0.550;2023-07-13T01:49:40;19.28;76.36
80290;SHT30;69592;44.804;-0.550;2023-07-13T01:52:06;19.28;76.62
80290;SHT30;69592;44.804;-0.550;2023-07-13T01:54:32;19.17;76.46
80290;SHT30;69592;44.804;-0.550;2023-07-13T01:56:59;19.01;76.88
80290;SHT30;69592;44.804;-0.550;2023-07-13T01:59:25;19.11;76.63
80290;SHT30;69592;44.804;-0.550;2023-07-13T02:01:50;19.04;76.73
80290;SHT30;69592;44.804;-0.550;2023-07-13T02:04:15;19.12;76.80
80290;SHT30;69592;44.804;-0.550;2023-07-13T02:06:40;19.08;76.46
80290;SHT30;69592;44.804;-0.550;2023-07-13T02:09:06;19.11;76.31
80290;SHT30;69592;44.804;-0.550;2023-07-13T02:11:33;19.10;76.15
80290;SHT30;69592;44.804;-0.550;2023-07-13T02:14:00;19.03;76.36
80290;SHT30;69592;44.804;-0.550;2023-07-13T02:16:27;19.12;76.23
80290;SHT30;69592;44.804;-0.550;2023-07-13T02:18:53;19.01;76.24
80290;SHT30;69592;44.804;-0.550;2023-07-13T02:21:18;19.01;76.27
80290;SHT30;69592;44.804;-0.550;2023-07-13T02:23:44;19.00;76.35
80290;SHT30;69592;44.804;-0.550;2023-07-13T02:26:09;18.96;76.19
80290;SHT30;69592;44.804;-0.550;2023-07-13T02:28:35;18.88;76.56
80290;SHT30;69592;44.804;-0.550;2023-07-13T02:31:11;18.90;76.22
80290;SHT30;69592;44.804;-0.550;2023-07-13T02:33:36;18.87;76.21
80290;SHT30;69592;44.804;-0.550;2023-07-13T02:36:02;18.87;76.10
80290;SHT30;69592;44.804;-0.550;2023-07-13T02:38:29;18.93;75.95
80290;SHT30;69592;44.804;-0.550;2023-07-13T02:40:54;18.96;75.96
80290;SHT30;69592;44.804;-0.550;2023-07-13T02:43:19;18.97;76.12
80290;SHT30;69592;44.804;-0.550;2023-07-13T02:45:45;19.00;75.88
80290;SHT30;69592;44.804;-0.550;2023-07-13T02:48:12;19.04;75.85
80290;SHT30;69592;44.804;-0.550;2023-07-13T02:50:38;19.06;76.01
80290;SHT30;69592;44.804;-0.550;2023-07-13T02:53:03;19.08;75.93
80290;SHT30;69592;44.804;-0.550;2023-07-13T02:55:29;19.07;76.00
80290;SHT30;69592;44.804;-0.550;2023-07-13T02:57:54;19.11;76.52
80290;SHT30;69592;44.804;-0.550;2023-07-13T03:00:19;19.14;76.20
80290;SHT30;69592;44.804;-0.550;2023-07-13T03:02:45;19.10;76.32
80290;SHT30;69592;44.804;-0.550;2023-07-13T03:05:11;19.07;76.95
80290;SHT30;69592;44.804;-0.550;2023-07-13T03:07:38;19.06;76.46
80290;SHT30;69592;44.804;-0.550;2023-07-13T03:10:04;19.03;76.74
80290;SHT30;69592;44.804;-0.550;2023-07-13T03:12:30;19.00;77.38
80290;SHT30;69592;44.804;-0.550;2023-07-13T03:14:55;18.94;77.61
80290;SHT30;69592;44.804;-0.550;2023-07-13T03:17:20;18.93;77.49
80290;SHT30;69592;44.804;-0.550;2023-07-13T03:19:46;18.97;77.56
80290;SHT30;69592;44.804;-0.550;2023-07-13T03:22:16;18.98;77.53
80290;SHT30;69592;44.804;-0.550;2023-07-13T03:24:41;19.01;77.73
80290;SHT30;69592;44.804;-0.550;2023-07-13T03:27:08;18.94;77.90
80290;SHT30;69592;44.804;-0.550;2023-07-13T03:29:33;18.94;78.17
80290;SHT30;69592;44.804;-0.550;2023-07-13T03:31:58;18.88;78.22
80290;SHT30;69592;44.804;-0.550;2023-07-13T03:34:24;18.83;78.46
80290;SHT30;69592;44.804;-0.550;2023-07-13T03:36:50;18.87;78.68
80290;SHT30;69592;44.804;-0.550;2023-07-13T03:39:15;18.83;79.25
80290;SHT30;69592;44.804;-0.550;2023-07-13T03:41:41;18.84;79.15
80290;SHT30;69592;44.804;-0.550;2023-07-13T03:44:06;18.81;79.20
80290;SHT30;69592;44.804;-0.550;2023-07-13T03:46:32;18.78;80.00
80290;SHT30;69592;44.804;-0.550;2023-07-13T03:48:58;18.80;80.58
80290;SHT30;69592;44.804;-0.550;2023-07-13T03:51:24;18.81;79.42
80290;SHT30;69592;44.804;-0.550;2023-07-13T03:53:49;18.74;79.48
80290;SHT30;69592;44.804;-0.550;2023-07-13T03:56:16;18.74;79.94
80290;SHT30;69592;44.804;-0.550;2023-07-13T03:58:46;18.74;79.91
80290;SHT30;69592;44.804;-0.550;2023-07-13T04:01:12;18.76;79.55
80290;SHT30;69592;44.804;-0.550;2023-07-13T04:03:38;18.78;79.23
80290;SHT30;69592;44.804;-0.550;2023-07-13T04:06:05;18.76;79.56
80290;SHT30;69592;44.804;-0.550;2023-07-13T04:08:33;18.76;79.51
80290;SHT30;69592;44.804;-0.550;2023-07-13T04:10:59;18.76;79.47
80290;SHT30;69592;44.804;-0.550;2023-07-13T04:13:26;18.80;79.27
80290;SHT30;69592;44.804;-0.550;2023-07-13T04:15:52;18.78;79.37
80290;SHT30;69592;44.804;-0.550;2023-07-13T04:18:18;18.80;79.42
80290;SHT30;69592;44.804;-0.550;2023-07-13T04:20:45;18.73;79.61
80290;SHT30;69592;44.804;-0.550;2023-07-13T04:23:11;18.77;79.64
80290;SHT30;69592;44.804;-0.550;2023-07-13T04:25:36;18.71;79.80
80290;SHT30;69592;44.804;-0.550;2023-07-13T04:28:03;18.74;79.57
80290;SHT30;69592;44.804;-0.550;2023-07-13T04:30:29;18.73;79.66
80290;SHT30;69592;44.804;-0.550;2023-07-13T04:32:55;18.73;79.48
80290;SHT30;69592;44.804;-0.550;2023-07-13T04:35:20;18.68;79.55
80290;SHT30;69592;44.804;-0.550;2023-07-13T04:37:47;18.64;79.86
80290;SHT30;69592;44.804;-0.550;2023-07-13T04:40:15;18.67;79.48
80290;SHT30;69592;44.804;-0.550;2023-07-13T04:42:41;18.71;79.56
80290;SHT30;69592;44.804;-0.550;2023-07-13T04:45:07;18.66;80.54
80290;SHT30;69592;44.804;-0.550;2023-07-13T04:47:32;18.64;79.91
80290;SHT30;69592;44.804;-0.550;2023-07-13T04:49:58;18.66;79.89
80290;SHT30;69592;44.804;-0.550;2023-07-13T04:52:24;18.66;80.26
80290;SHT30;69592;44.804;-0.550;2023-07-13T04:54:49;18.66;79.46
80290;SHT30;69592;44.804;-0.550;2023-07-13T04:57:15;18.61;79.69
80290;SHT30;69592;44.804;-0.550;2023-07-13T04:59:40;18.63;80.05
80290;SHT30;69592;44.804;-0.550;2023-07-13T05:02:06;18.61;79.91
80290;SHT30;69592;44.804;-0.550;2023-07-13T05:04:31;18.63;79.57
80290;SHT30;69592;44.804;-0.550;2023-07-13T05:06:58;18.66;79.33
80290;SHT30;69592;44.804;-0.550;2023-07-13T05:09:24;18.68;79.30
80290;SHT30;69592;44.804;-0.550;2023-07-13T05:11:49;18.63;79.67
80290;SHT30;69592;44.804;-0.550;2023-07-13T05:14:14;18.64;80.06
80290;SHT30;69592;44.804;-0.550;2023-07-13T05:16:41;18.59;79.70
80290;SHT30;69592;44.804;-0.550;2023-07-13T05:19:08;18.57;79.83
80290;SHT30;69592;44.804;-0.550;2023-07-13T05:21:33;18.59;79.67
80290;SHT30;69592;44.804;-0.550;2023-07-13T05:23:59;18.60;79.50
80290;SHT30;69592;44.804;-0.550;2023-07-13T05:26:24;18.68;79.16
80290;SHT30;69592;44.804;-0.550;2023-07-13T05:28:50;18.68;79.20
80290;SHT30;69592;44.804;-0.550;2023-07-13T05:31:15;18.76;79.09
80290;SHT30;69592;44.804;-0.550;2023-07-13T05:33:40;18.78;79.22
80290;SHT30;69592;44.804;-0.550;2023-07-13T05:36:06;18.81;79.84
80290;SHT30;69592;44.804;-0.550;2023-07-13T05:38:32;18.87;78.79
80290;SHT30;69592;44.804;-0.550;2023-07-13T05:40:58;18.90;79.07
80290;SHT30;69592;44.804;-0.550;2023-07-13T05:43:24;18.97;78.52
80290;SHT30;69592;44.804;-0.550;2023-07-13T05:45:52;18.94;78.19
80290;SHT30;69592;44.804;-0.550;2023-07-13T05:48:18;19.04;78.42
80290;SHT30;69592;44.804;-0.550;2023-07-13T05:50:43;19.10;77.66
80290;SHT30;69592;44.804;-0.550;2023-07-13T05:53:09;19.14;77.24
80290;SHT30;69592;44.804;-0.550;2023-07-13T05:55:34;19.21;77.07
80290;SHT30;69592;44.804;-0.550;2023-07-13T05:58:00;19.28;77.05
80290;SHT30;69592;44.804;-0.550;2023-07-13T06:00:26;19.25;77.53
80290;SHT30;69592;44.804;-0.550;2023-07-13T06:02:51;19.25;76.68
80290;SHT30;69592;44.804;-0.550;2023-07-13T06:05:17;19.34;76.57
80290;SHT30;69592;44.804;-0.550;2023-07-13T06:07:42;19.35;76.64
80290;SHT30;69592;44.804;-0.550;2023-07-13T06:10:08;19.48;76.38
80290;SHT30;69592;44.804;-0.550;2023-07-13T06:12:34;19.54;75.95
80290;SHT30;69592;44.804;-0.550;2023-07-13T06:14:59;19.59;75.92
80290;SHT30;69592;44.804;-0.550;2023-07-13T06:17:25;19.57;75.32
80290;SHT30;69592;44.804;-0.550;2023-07-13T06:19:50;19.55;75.61
80290;SHT30;69592;44.804;-0.550;2023-07-13T06:22:16;19.68;75.58
80290;SHT30;69592;44.804;-0.550;2023-07-13T06:24:41;19.70;75.01
80290;SHT30;69592;44.804;-0.550;2023-07-13T06:27:06;19.75;75.10
80290;SHT30;69592;44.804;-0.550;2023-07-13T06:29:32;19.66;74.46
80290;SHT30;69592;44.804;-0.550;2023-07-13T06:31:58;19.76;74.21
80290;SHT30;69592;44.804;-0.550;2023-07-13T06:34:23;19.85;74.40
80290;SHT30;69592;44.804;-0.550;2023-07-13T06:36:48;20.00;74.38
80290;SHT30;69592;44.804;-0.550;2023-07-13T06:39:14;20.22;74.07
80290;SHT30;69592;44.804;-0.550;2023-07-13T06:41:39;20.29;73.56
80290;SHT30;69592;44.804;-0.550;2023-07-13T06:44:05;20.22;73.41
80290;SHT30;69592;44.804;-0.550;2023-07-13T06:46:30;20.31;73.57
80290;SHT30;69592;44.804;-0.550;2023-07-13T06:48:56;20.36;73.02
80290;SHT30;69592;44.804;-0.550;2023-07-13T06:51:21;20.48;72.81
80290;SHT30;69592;44.804;-0.550;2023-07-13T06:53:47;20.44;73.23
80290;SHT30;69592;44.804;-0.550;2023-07-13T06:56:12;20.51;73.02
80290;SHT30;69592;44.804;-0.550;2023-07-13T06:58:38;20.54;72.16
80290;SHT30;69592;44.804;-0.550;2023-07-13T07:01:04;20.61;72.42
80290;SHT30;69592;44.804;-0.550;2023-07-13T07:03:30;20.77;72.41
80290;SHT30;69592;44.804;-0.550;2023-07-13T07:06:16;20.85;71.50
80290;SHT30;69592;44.804;-0.550;2023-07-13T07:08:42;20.95;71.19
80290;SHT30;69592;44.804;-0.550;2023-07-13T07:11:11;20.96;71.23
80290;SHT30;69592;44.804;-0.550;2023-07-13T07:13:36;21.02;71.65
80290;SHT30;69592;44.804;-0.550;2023-07-13T07:16:02;21.15;71.20
80290;SHT30;69592;44.804;-0.550;2023-07-13T07:18:28;21.24;70.50
80290;SHT30;69592;44.804;-0.550;2023-07-13T07:20:53;21.24;69.92
80290;SHT30;69592;44.804;-0.550;2023-07-13T07:23:18;21.38;69.62
80290;SHT30;69592;44.804;-0.550;2023-07-13T07:25:44;21.46;68.78
80290;SHT30;69592;44.804;-0.550;2023-07-13T07:28:10;21.53;68.16
80290;SHT30;69592;44.804;-0.550;2023-07-13T07:30:36;21.47;67.80
80290;SHT30;69592;44.804;-0.550;2023-07-13T07:33:01;21.52;67.99
80290;SHT30;69592;44.804;-0.550;2023-07-13T07:35:26;21.60;67.75
80290;SHT30;69592;44.804;-0.550;2023-07-13T07:37:52;21.50;68.24
80290;SHT30;69592;44.804;-0.550;2023-07-13T07:40:18;21.43;67.69
80290;SHT30;69592;44.804;-0.550;2023-07-13T07:42:44;21.50;67.29
80290;SHT30;69592;44.804;-0.550;2023-07-13T07:45:09;21.63;66.98
80290;SHT30;69592;44.804;-0.550;2023-07-13T07:47:36;21.82;67.25
80290;SHT30;69592;44.804;-0.550;2023-07-13T07:50:02;21.90;67.28
80290;SHT30;69592;44.804;-0.550;2023-07-13T07:52:28;22.03;66.77
80290;SHT30;69592;44.804;-0.550;2023-07-13T07:54:53;22.00;67.03
80290;SHT30;69592;44.804;-0.550;2023-07-13T07:57:19;22.13;66.48
80290;SHT30;69592;44.804;-0.550;2023-07-13T07:59:44;22.21;66.08
80290;SHT30;69592;44.804;-0.550;2023-07-13T08:02:10;22.28;66.37
80290;SHT30;69592;44.804;-0.550;2023-07-13T08:04:36;22.31;67.17
80290;SHT30;69592;44.804;-0.550;2023-07-13T08:07:02;22.37;65.68
80290;SHT30;69592;44.804;-0.550;2023-07-13T08:09:28;22.61;65.02
80290;SHT30;69592;44.804;-0.550;2023-07-13T08:11:54;22.62;65.19
80290;SHT30;69592;44.804;-0.550;2023-07-13T08:14:20;22.48;65.03
80290;SHT30;69592;44.804;-0.550;2023-07-13T08:16:45;22.44;66.07
80290;SHT30;69592;44.804;-0.550;2023-07-13T08:19:11;22.54;63.88
80290;SHT30;69592;44.804;-0.550;2023-07-13T08:21:36;22.67;62.98
80290;SHT30;69592;44.804;-0.550;2023-07-13T08:24:02;22.81;62.09
80290;SHT30;69592;44.804;-0.550;2023-07-13T08:26:28;22.76;61.36
80290;SHT30;69592;44.804;-0.550;2023-07-13T08:28:53;22.69;61.28
80290;SHT30;69592;44.804;-0.550;2023-07-13T08:31:19;22.89;60.63
80290;SHT30;69592;44.804;-0.550;2023-07-13T08:33:44;23.29;61.29
80290;SHT30;69592;44.804;-0.550;2023-07-13T08:36:10;23.56;61.56
80290;SHT30;69592;44.804;-0.550;2023-07-13T08:38:35;23.50;60.84
80290;SHT30;69592;44.804;-0.550;2023-07-13T08:41:10;23.34;59.98
80290;SHT30;69592;44.804;-0.550;2023-07-13T08:43:37;23.46;60.23
80290;SHT30;69592;44.804;-0.550;2023-07-13T08:46:19;23.33;60.75
80290;SHT30;69592;44.804;-0.550;2023-07-13T08:48:51;23.64;60.38
80290;SHT30;69592;44.804;-0.550;2023-07-13T08:54:08;23.59;59.54
80290;SHT30;69592;44.804;-0.550;2023-07-13T08:56:36;23.30;60.08
80290;SHT30;69592;44.804;-0.550;2023-07-13T08:59:12;23.60;59.79
80290;SHT30;69592;44.804;-0.550;2023-07-13T09:04:46;23.97;59.35
80290;SHT30;69592;44.804;-0.550;2023-07-13T09:10:32;24.38;58.59
80290;SHT30;69592;44.804;-0.550;2023-07-13T09:15:48;24.11;58.00
80290;SHT30;69592;44.804;-0.550;2023-07-13T09:18:35;24.51;57.05
80290;SHT30;69592;44.804;-0.550;2023-07-13T09:21:18;24.44;57.43
80290;SHT30;69592;44.804;-0.550;2023-07-13T09:23:47;24.01;57.73
80290;SHT30;69592;44.804;-0.550;2023-07-13T09:26:19;23.94;58.02
80290;SHT30;69592;44.804;-0.550;2023-07-13T09:28:55;24.07;57.97
80290;SHT30;69592;44.804;-0.550;2023-07-13T09:31:34;24.24;57.93
80290;SHT30;69592;44.804;-0.550;2023-07-13T09:34:02;24.20;58.02
80290;SHT30;69592;44.804;-0.550;2023-07-13T09:36:31;24.27;56.69
80290;SHT30;69592;44.804;-0.550;2023-07-13T09:45:08;23.67;57.09
80290;SHT30;69592;44.804;-0.550;2023-07-13T09:47:20;23.56;57.95
80290;SHT30;69592;44.804;-0.550;2023-07-13T09:49:54;24.14;57.35
80290;SHT30;69592;44.804;-0.550;2023-07-13T09:52:20;24.61;55.80
80290;SHT30;69592;44.804;-0.550;2023-07-13T09:54:51;24.64;54.28
80290;SHT30;69592;44.804;-0.550;2023-07-13T09:57:19;24.79;54.00
80290;SHT30;69592;44.804;-0.550;2023-07-13T09:59:49;24.92;54.99
80290;SHT30;69592;44.804;-0.550;2023-07-13T10:04:59;24.45;54.57
80290;SHT30;69592;44.804;-0.550;2023-07-13T10:07:26;24.80;53.01
80290;SHT30;69592;44.804;-0.550;2023-07-13T10:10:01;24.51;53.33
80290;SHT30;69592;44.804;-0.550;2023-07-13T10:12:29;24.68;53.50
80290;SHT30;69592;44.804;-0.550;2023-07-13T10:14:58;25.26;53.08
80290;SHT30;69592;44.804;-0.550;2023-07-13T10:17:30;25.77;52.99
80290;SHT30;69592;44.804;-0.550;2023-07-13T10:19:59;25.22;52.57
80290;SHT30;69592;44.804;-0.550;2023-07-13T10:25:14;25.24;54.16
80290;SHT30;69592;44.804;-0.550;2023-07-13T10:27:40;24.76;54.35
80290;SHT30;69592;44.804;-0.550;2023-07-13T10:30:13;25.06;54.45
80290;SHT30;69592;44.804;-0.550;2023-07-13T10:32:40;25.50;52.79
80290;SHT30;69592;44.804;-0.550;2023-07-13T10:35:10;25.82;52.68
80290;SHT30;69592;44.804;-0.550;2023-07-13T10:40:13;26.21;51.55
80290;SHT30;69592;44.804;-0.550;2023-07-13T10:42:41;26.15;51.51
80290;SHT30;69592;44.804;-0.550;2023-07-13T10:45:14;26.24;49.72
80290;SHT30;69592;44.804;-0.550;2023-07-13T10:47:40;26.36;51.66
80290;SHT30;69592;44.804;-0.550;2023-07-13T10:50:17;26.83;49.39
80290;SHT30;69592;44.804;-0.550;2023-07-13T10:52:47;26.73;49.12
80290;SHT30;69592;44.804;-0.550;2023-07-13T10:58:00;25.23;50.85
80290;SHT30;69592;44.804;-0.550;2023-07-13T11:00:26;25.50;50.14
80290;SHT30;69592;44.804;-0.550;2023-07-13T11:02:57;25.46;50.33
80290;SHT30;69592;44.804;-0.550;2023-07-13T11:05:30;25.50;50.01
80290;SHT30;69592;44.804;-0.550;2023-07-13T11:08:04;25.63;49.83
80290;SHT30;69592;44.804;-0.550;2023-07-13T11:10:49;26.32;49.42
80290;SHT30;69592;44.804;-0.550;2023-07-13T11:18:51;26.86;48.76
80290;SHT30;69592;44.804;-0.550;2023-07-13T11:21:26;27.00;50.69
80290;SHT30;69592;44.804;-0.550;2023-07-13T11:24:02;27.17;48.75
80290;SHT30;69592;44.804;-0.550;2023-07-13T11:26:50;27.23;47.98
80290;SHT30;69592;44.804;-0.550;2023-07-13T11:32:01;27.54;46.98
80290;SHT30;69592;44.804;-0.550;2023-07-13T11:34:43;27.24;46.53
80290;SHT30;69592;44.804;-0.550;2023-07-13T11:37:13;27.51;46.41
80290;SHT30;69592;44.804;-0.550;2023-07-13T11:39:42;27.75;46.11
80290;SHT30;69592;44.804;-0.550;2023-07-13T11:42:12;27.88;46.57
80290;SHT30;69592;44.804;-0.550;2023-07-13T11:44:43;27.55;46.92
80290;SHT30;69592;44.804;-0.550;2023-07-13T11:47:14;28.08;46.37
80290;SHT30;69592;44.804;-0.550;2023-07-13T11:49:44;28.04;44.67
80290;SHT30;69592;44.804;-0.550;2023-07-13T11:52:15;28.38;45.09
80290;SHT30;69592;44.804;-0.550;2023-07-13T11:55:13;28.18;45.51
80290;SHT30;69592;44.804;-0.550;2023-07-13T11:58:00;27.20;45.43
80290;SHT30;69592;44.804;-0.550;2023-07-13T12:00:29;27.45;45.78
80290;SHT30;69592;44.804;-0.550;2023-07-13T12:02:59;27.98;45.25
80290;SHT30;69592;44.804;-0.550;2023-07-13T12:05:25;28.19;44.75
80290;SHT30;69592;44.804;-0.550;2023-07-13T12:07:51;27.14;45.31
80290;SHT30;69592;44.804;-0.550;2023-07-13T12:13:04;28.15;45.01
80290;SHT30;69592;44.804;-0.550;2023-07-13T12:15:33;28.32;46.02
80290;SHT30;69592;44.804;-0.550;2023-07-13T12:18:01;28.63;45.68
80290;SHT30;69592;44.804;-0.550;2023-07-13T12:20:33;28.36;44.63
80290;SHT30;69592;44.804;-0.550;2023-07-13T12:23:00;28.32;44.70
80290;SHT30;69592;44.804;-0.550;2023-07-13T12:25:28;28.43;44.32
80290;SHT30;69592;44.804;-0.550;2023-07-13T12:27:54;28.33;44.29
80290;SHT30;69592;44.804;-0.550;2023-07-13T12:30:27;27.72;43.65
80290;SHT30;69592;44.804;-0.550;2023-07-13T12:33:07;27.65;45.11
80290;SHT30;69592;44.804;-0.550;2023-07-13T12:35:41;27.88;45.96
80290;SHT30;69592;44.804;-0.550;2023-07-13T12:38:10;28.05;46.08
80290;SHT30;69592;44.804;-0.550;2023-07-13T12:40:37;28.06;44.59
80290;SHT30;69592;44.804;-0.550;2023-07-13T12:43:03;28.02;45.48
80290;SHT30;69592;44.804;-0.550;2023-07-13T12:45:32;27.69;44.18
80290;SHT30;69592;44.804;-0.550;2023-07-13T12:48:14;27.43;47.85
80290;SHT30;69592;44.804;-0.550;2023-07-13T12:50:47;27.04;45.49
80290;SHT30;69592;44.804;-0.550;2023-07-13T12:53:15;27.48;48.57
80290;SHT30;69592;44.804;-0.550;2023-07-13T12:55:52;27.69;45.67
80290;SHT30;69592;44.804;-0.550;2023-07-13T12:58:42;28.26;44.31
80290;SHT30;69592;44.804;-0.550;2023-07-13T13:01:10;28.81;43.28
80290;SHT30;69592;44.804;-0.550;2023-07-13T13:03:46;28.97;43.29
80290;SHT30;69592;44.804;-0.550;2023-07-13T13:08:40;29.03;42.74
80290;SHT30;69592;44.804;-0.550;2023-07-13T13:11:08;29.08;43.33
80290;SHT30;69592;44.804;-0.550;2023-07-13T13:13:34;28.80;40.95
80290;SHT30;69592;44.804;-0.550;2023-07-13T13:16:13;28.42;43.24
80290;SHT30;69592;44.804;-0.550;2023-07-13T13:18:40;28.29;43.85
80290;SHT30;69592;44.804;-0.550;2023-07-13T13:21:05;28.10;42.83
80290;SHT30;69592;44.804;-0.550;2023-07-13T13:23:31;27.91;45.08
80290;SHT30;69592;44.804;-0.550;2023-07-13T13:25:57;27.64;45.34
80290;SHT30;69592;44.804;-0.550;2023-07-13T13:28:24;27.44;46.17
80290;SHT30;69592;44.804;-0.550;2023-07-13T13:30:51;27.57;46.26
80290;SHT30;69592;44.804;-0.550;2023-07-13T13:33:18;27.99;45.52
80290;SHT30;69592;44.804;-0.550;2023-07-13T13:35:45;28.77;46.40
80290;SHT30;69592;44.804;-0.550;2023-07-13T13:38:14;29.14;46.52
80290;SHT30;69592;44.804;-0.550;2023-07-13T13:40:44;28.76;44.29
80290;SHT30;69592;44.804;-0.550;2023-07-13T13:45:40;29.45;45.31
80290;SHT30;69592;44.804;-0.550;2023-07-13T13:48:11;29.95;41.43
80290;SHT30;69592;44.804;-0.550;2023-07-13T13:50:38;30.19;42.07
80290;SHT30;69592;44.804;-0.550;2023-07-13T13:53:04;30.29;42.20
80290;SHT30;69592;44.804;-0.550;2023-07-13T13:55:29;29.85;41.37
80290;SHT30;69592;44.804;-0.550;2023-07-13T13:57:54;29.41;41.93
80290;SHT30;69592;44.804;-0.550;2023-07-13T14:00:20;29.59;41.71
80290;SHT30;69592;44.804;-0.550;2023-07-13T14:02:47;30.12;39.41
80290;SHT30;69592;44.804;-0.550;2023-07-13T14:05:17;30.37;41.51
80290;SHT30;69592;44.804;-0.550;2023-07-13T14:07:44;30.78;40.47
80290;SHT30;69592;44.804;-0.550;2023-07-13T14:10:15;30.52;40.04
80290;SHT30;69592;44.804;-0.550;2023-07-13T14:12:45;30.43;38.83
80290;SHT30;69592;44.804;-0.550;2023-07-13T14:15:24;29.90;39.60
80290;SHT30;69592;44.804;-0.550;2023-07-13T14:17:51;30.60;40.53
80290;SHT30;69592;44.804;-0.550;2023-07-13T14:20:19;30.61;40.63
80290;SHT30;69592;44.804;-0.550;2023-07-13T14:22:45;30.59;40.85
80290;SHT30;69592;44.804;-0.550;2023-07-13T14:25:12;30.36;40.50
80290;SHT30;69592;44.804;-0.550;2023-07-13T14:27:38;29.79;41.12
80290;SHT30;69592;44.804;-0.550;2023-07-13T14:30:13;29.66;43.17
80290;SHT30;69592;44.804;-0.550;2023-07-13T14:32:39;29.76;42.64
80290;SHT30;69592;44.804;-0.550;2023-07-13T14:35:04;29.55;40.13
80290;SHT30;69592;44.804;-0.550;2023-07-13T14:37:30;29.22;39.65
80290;SHT30;69592;44.804;-0.550;2023-07-13T14:39:55;29.88;41.07
80290;SHT30;69592;44.804;-0.550;2023-07-13T14:42:20;30.13;44.16
80290;SHT30;69592;44.804;-0.550;2023-07-13T14:44:46;30.15;40.61
80290;SHT30;69592;44.804;-0.550;2023-07-13T14:47:11;29.88;38.90
80290;SHT30;69592;44.804;-0.550;2023-07-13T14:49:42;30.22;39.03
80290;SHT30;69592;44.804;-0.550;2023-07-13T14:52:14;30.41;38.85
80290;SHT30;69592;44.804;-0.550;2023-07-13T14:54:41;30.64;39.55
80290;SHT30;69592;44.804;-0.550;2023-07-13T14:57:10;30.64;39.15
80290;SHT30;69592;44.804;-0.550;2023-07-13T14:59:36;30.22;39.60
80290;SHT30;69592;44.804;-0.550;2023-07-13T15:02:02;30.71;37.99
80290;SHT30;69592;44.804;-0.550;2023-07-13T15:04:29;30.44;38.85
80290;SHT30;69592;44.804;-0.550;2023-07-13T15:07:01;30.91;37.56
80290;SHT30;69592;44.804;-0.550;2023-07-13T15:09:30;29.45;38.90
80290;SHT30;69592;44.804;-0.550;2023-07-13T15:11:56;29.66;40.03
80290;SHT30;69592;44.804;-0.550;2023-07-13T15:14:22;29.89;39.68
80290;SHT30;69592;44.804;-0.550;2023-07-13T15:16:52;30.16;39.75
80290;SHT30;69592;44.804;-0.550;2023-07-13T15:19:19;30.60;38.97
80290;SHT30;69592;44.804;-0.550;2023-07-13T15:21:46;30.08;37.97
80290;SHT30;69592;44.804;-0.550;2023-07-13T15:24:12;29.93;38.44
80290;SHT30;69592;44.804;-0.550;2023-07-13T15:26:38;30.40;38.68
80290;SHT30;69592;44.804;-0.550;2023-07-13T15:29:04;30.57;38.68
80290;SHT30;69592;44.804;-0.550;2023-07-13T15:31:29;30.17;39.99
80290;SHT30;69592;44.804;-0.550;2023-07-13T15:33:58;29.90;40.57
80290;SHT30;69592;44.804;-0.550;2023-07-13T15:36:24;30.22;39.43
80290;SHT30;69592;44.804;-0.550;2023-07-13T15:38:54;30.59;38.72
80290;SHT30;69592;44.804;-0.550;2023-07-13T15:41:25;30.73;39.96
80290;SHT30;69592;44.804;-0.550;2023-07-13T15:43:59;30.97;38.92
80290;SHT30;69592;44.804;-0.550;2023-07-13T15:46:27;31.25;38.15
80290;SHT30;69592;44.804;-0.550;2023-07-13T15:48:54;31.21;37.90
80290;SHT30;69592;44.804;-0.550;2023-07-13T15:53:48;30.66;37.95
80290;SHT30;69592;44.804;-0.550;2023-07-13T15:56:26;30.70;38.82
80290;SHT30;69592;44.804;-0.550;2023-07-13T15:58:52;30.52;38.45
80290;SHT30;69592;44.804;-0.550;2023-07-13T16:01:19;30.37;38.31
80290;SHT30;69592;44.804;-0.550;2023-07-13T16:03:45;30.44;39.41
80290;SHT30;69592;44.804;-0.550;2023-07-13T16:06:32;30.20;39.89
80290;SHT30;69592;44.804;-0.550;2023-07-13T16:08:58;30.61;39.74
80290;SHT30;69592;44.804;-0.550;2023-07-13T16:11:29;30.29;39.61